Time;durP1;ratioP1;P1;durP2;ratioP2;P2;SDS_P1;SDS_P2;PMS_P1;PMS_P2;Temp;Humidity;BMP_temperature;BMP_pressure;BME280_temperature;BME280_humidity;BME280_pressure;Samples;Min_cycle;Max_cycle;Signal;HPM_P1;HPM_P2
2023/05/28 00:02:12;;;;;;;26.25;6.75;;;11.30;99.90;;;;;;5099720;28;20039;-67
2023/05/28 00:04:38;;;;;;;25.40;6.85;;;11.20;99.90;;;;;;5118430;28;20058;-69
2023/05/28 00:07:04;;;;;;;20.92;7.07;;;11.20;99.90;;;;;;5117913;28;20445;-72
2023/05/28 00:09:29;;;;;;;23.55;6.63;;;11.20;99.90;;;;;;5118438;28;20175;-69
2023/05/28 00:11:56;;;;;;;19.92;5.88;;;11.10;99.90;;;;;;5118325;28;20077;-68
2023/05/28 00:14:22;;;;;;;27.90;7.40;;;11.10;99.90;;;;;;5118505;28;20105;-67
2023/05/28 00:16:50;;;;;;;31.10;6.72;;;11.00;99.90;;;;;;5118397;28;20455;-68
2023/05/28 00:19:17;;;;;;;24.70;6.70;;;11.00;99.90;;;;;;5118073;28;20059;-66
2023/05/28 00:21:42;;;;;;;23.75;6.57;;;11.00;99.90;;;;;;5100361;28;20090;-67
2023/05/28 00:24:08;;;;;;;23.98;6.70;;;11.00;99.90;;;;;;5083130;28;20036;-67
2023/05/28 00:26:34;;;;;;;24.15;6.40;;;10.90;99.90;;;;;;5100102;28;20088;-67
2023/05/28 00:29:00;;;;;;;22.05;6.38;;;11.00;99.90;;;;;;5117630;28;20362;-67
2023/05/28 00:31:25;;;;;;;24.42;6.53;;;10.90;99.90;;;;;;5099456;28;20461;-68
2023/05/28 00:33:51;;;;;;;28.77;6.85;;;10.90;99.90;;;;;;5118794;28;20039;-67
2023/05/28 00:36:17;;;;;;;25.52;6.78;;;10.80;99.90;;;;;;5099916;28;20081;-67
2023/05/28 00:38:43;;;;;;;27.10;7.20;;;10.80;99.90;;;;;;5100272;28;20068;-67
2023/05/28 00:41:08;;;;;;;28.25;7.25;;;10.70;99.90;;;;;;5118224;28;20514;-73
2023/05/28 00:43:35;;;;;;;34.83;7.95;;;10.70;99.90;;;;;;5117976;28;20431;-68
2023/05/28 00:46:03;;;;;;;23.05;7.53;;;10.70;99.90;;;;;;5100166;28;20044;-67
2023/05/28 00:48:30;;;;;;;24.05;6.93;;;10.60;99.90;;;;;;5098976;28;20087;-68
2023/05/28 00:50:56;;;;;;;25.13;6.10;;;10.60;99.90;;;;;;5099419;28;20044;-68
2023/05/28 00:53:23;;;;;;;24.03;6.37;;;10.60;99.90;;;;;;5116931;28;20051;-68
2023/05/28 00:55:49;;;;;;;;;;;10.60;99.90;;;;;;5099002;28;20043;-68
2023/05/28 00:58:16;;;;;;;21.95;6.82;;;10.60;99.90;;;;;;5098944;28;19926;-69
2023/05/28 01:00:43;;;;;;;24.48;6.28;;;10.60;99.90;;;;;;5099435;28;20366;-69
2023/05/28 01:03:09;;;;;;;24.80;7.15;;;10.60;99.90;;;;;;5098640;28;20090;-69
2023/05/28 01:05:35;;;;;;;22.03;6.47;;;10.60;99.90;;;;;;5082057;28;20051;-69
2023/05/28 01:08:03;;;;;;;21.35;6.30;;;10.60;99.90;;;;;;5116295;28;20050;-68
2023/05/28 01:10:29;;;;;;;21.10;5.57;;;10.60;99.90;;;;;;5098012;28;20508;-67
2023/05/28 01:12:56;;;;;;;26.90;6.22;;;10.60;99.90;;;;;;5081507;28;20046;-68
2023/05/28 01:15:23;;;;;;;25.10;6.60;;;10.60;99.90;;;;;;5098806;28;20473;-69
2023/05/28 01:17:49;;;;;;;;;;;10.60;99.90;;;;;;5116942;28;20400;-68
2023/05/28 01:20:15;;;;;;;20.47;5.80;;;10.50;99.90;;;;;;5098033;28;19920;-69
2023/05/28 01:22:55;;;;;;;22.55;6.60;;;10.50;99.90;;;;;;5116614;28;20046;-69
2023/05/28 01:25:22;;;;;;;24.33;6.82;;;10.60;99.90;;;;;;5098337;28;20046;-69
2023/05/28 01:27:47;;;;;;;21.73;6.32;;;10.50;99.90;;;;;;5081934;28;20047;-69
2023/05/28 01:30:13;;;;;;;25.77;6.45;;;10.40;99.90;;;;;;5064643;28;20040;-69
2023/05/28 01:32:39;;;;;;;20.05;5.35;;;10.40;99.90;;;;;;5116465;28;20462;-66
2023/05/28 01:35:06;;;;;;;24.13;6.40;;;10.40;99.90;;;;;;5064991;28;20047;-67
2023/05/28 01:37:35;;;;;;;22.27;6.63;;;10.40;99.90;;;;;;5116427;28;20139;-67
2023/05/28 01:40:05;;;;;;;25.27;6.22;;;10.30;99.90;;;;;;5099502;28;20083;-68
2023/05/28 01:42:33;;;;;;;19.23;6.07;;;10.30;99.90;;;;;;5099048;28;20043;-68
2023/05/28 01:45:00;;;;;;;28.58;7.15;;;10.20;99.90;;;;;;5097961;28;20127;-68
2023/05/28 01:47:27;;;;;;;27.23;8.25;;;10.20;99.90;;;;;;5115865;28;20119;-67
2023/05/28 01:49:53;;;;;;;25.88;6.18;;;10.20;99.90;;;;;;5116951;28;20040;-68
2023/05/28 01:52:19;;;;;;;30.70;6.67;;;10.20;99.90;;;;;;5116916;28;20070;-69
2023/05/28 01:54:45;;;;;;;27.27;6.72;;;10.20;99.90;;;;;;5081676;28;20290;-67
2023/05/28 01:57:11;;;;;;;25.40;7.25;;;10.10;99.90;;;;;;5098731;28;20048;-67
2023/05/28 01:59:37;;;;;;;24.07;6.23;;;10.10;99.90;;;;;;5116362;28;20058;-68
2023/05/28 02:02:03;;;;;;;29.75;7.20;;;10.10;99.90;;;;;;5116256;28;20639;-68
2023/05/28 02:04:29;;;;;;;23.67;7.87;;;10.10;99.90;;;;;;5098183;28;20048;-67
2023/05/28 02:06:55;;;;;;;20.67;6.10;;;10.10;99.90;;;;;;5115931;28;20112;-68
2023/05/28 02:09:21;;;;;;;23.48;6.63;;;10.10;99.90;;;;;;5115905;28;20060;-68
2023/05/28 02:11:47;;;;;;;26.00;7.05;;;10.20;99.90;;;;;;5098408;28;20101;-68
2023/05/28 02:14:14;;;;;;;24.95;7.15;;;10.20;99.90;;;;;;5115841;28;20040;-68
2023/05/28 02:16:49;;;;;;;25.17;7.35;;;10.20;99.90;;;;;;5116004;28;20048;-68
2023/05/28 02:19:16;;;;;;;27.40;6.93;;;10.20;99.90;;;;;;5081294;28;20036;-72
2023/05/28 02:21:42;;;;;;;29.42;6.82;;;10.20;99.90;;;;;;5080719;28;20518;-72
2023/05/28 02:24:07;;;;;;;30.70;7.25;;;10.20;99.90;;;;;;5096449;28;20047;-70
2023/05/28 02:26:33;;;;;;;29.05;7.05;;;10.20;99.90;;;;;;5096811;28;20044;-70
2023/05/28 02:28:59;;;;;;;29.48;6.53;;;10.20;99.90;;;;;;5096804;28;20048;-71
2023/05/28 02:31:25;;;;;;;26.25;7.25;;;10.20;99.90;;;;;;5114873;28;20047;-71
2023/05/28 02:33:51;;;;;;;26.67;6.53;;;10.20;99.90;;;;;;5080032;28;20405;-71
2023/05/28 02:36:17;;;;;;;25.23;7.03;;;10.20;99.90;;;;;;5096521;28;20048;-70
2023/05/28 02:38:42;;;;;;;27.52;7.40;;;10.20;99.90;;;;;;5096596;28;20051;-71
2023/05/28 02:41:09;;;;;;;28.83;7.30;;;10.20;99.90;;;;;;5079937;28;20449;-70
2023/05/28 02:43:35;;;;;;;26.55;7.63;;;10.20;99.90;;;;;;5096920;28;20051;-70
2023/05/28 02:46:01;;;;;;;21.90;5.95;;;10.20;99.90;;;;;;5096707;28;20058;-71
2023/05/28 02:48:27;;;;;;;25.98;6.90;;;10.20;99.90;;;;;;5079570;28;20469;-70
2023/05/28 02:50:52;;;;;;;24.45;6.95;;;10.20;99.90;;;;;;5080154;28;20048;-71
2023/05/28 02:53:20;;;;;;;28.20;6.75;;;10.20;99.90;;;;;;5079745;28;20054;-70
2023/05/28 02:55:46;;;;;;;24.60;6.97;;;10.20;99.90;;;;;;5096263;28;20066;-71
2023/05/28 02:58:13;;;;;;;22.42;6.68;;;10.20;99.90;;;;;;5115340;28;20505;-71
2023/05/28 03:00:39;;;;;;;26.73;7.00;;;10.20;99.90;;;;;;5114270;28;20047;-72
2023/05/28 03:03:04;;;;;;;29.15;7.32;;;10.20;99.90;;;;;;5063422;28;20538;-71
2023/05/28 03:05:31;;;;;;;29.25;7.50;;;10.20;99.90;;;;;;5114654;28;20043;-71
2023/05/28 03:07:58;;;;;;;31.20;8.77;;;10.20;99.90;;;;;;5062314;28;20047;-71
2023/05/28 03:10:24;;;;;;;;;;;10.20;99.90;;;;;;5114818;28;20052;-69
2023/05/28 03:12:50;;;;;;;27.27;7.03;;;10.10;99.90;;;;;;5096237;28;19920;-70
2023/05/28 03:15:15;;;;;;;26.73;6.85;;;10.10;99.90;;;;;;5096593;28;20047;-71
2023/05/28 03:17:41;;;;;;;21.92;6.63;;;10.10;99.90;;;;;;5113799;28;20191;-72
2023/05/28 03:20:11;;;;;;;27.45;8.35;;;10.10;99.90;;;;;;5095925;28;20130;-71
2023/05/28 03:22:38;;;;;;;23.05;7.07;;;10.10;99.90;;;;;;5095773;28;20051;-71
2023/05/28 03:25:05;;;;;;;30.60;7.63;;;10.10;99.90;;;;;;5079271;28;20055;-71
2023/05/28 03:27:32;;;;;;;29.88;7.35;;;10.10;99.90;;;;;;5079615;28;20441;-81
2023/05/28 03:29:58;;;;;;;31.83;8.70;;;10.20;99.90;;;;;;5096932;28;20044;-71
2023/05/28 03:32:24;;;;;;;30.43;6.30;;;10.20;99.90;;;;;;5114464;28;20123;-72
2023/05/28 03:34:51;;;;;;;31.48;6.97;;;10.10;99.90;;;;;;5078938;28;20130;-71
2023/05/28 03:37:17;;;;;;;30.83;7.22;;;10.20;99.90;;;;;;5114687;28;20077;-72
2023/05/28 03:39:43;;;;;;;27.73;7.50;;;10.10;99.90;;;;;;5095850;28;20426;-72
2023/05/28 03:42:09;;;;;;;23.33;6.47;;;10.20;99.90;;;;;;5061930;28;20101;-71
2023/05/28 03:44:35;;;;;;;29.63;8.57;;;10.10;99.90;;;;;;5062571;28;20051;-71
2023/05/28 03:47:01;;;;;;;23.13;6.55;;;10.10;99.90;;;;;;5095395;28;20043;-70
2023/05/28 03:49:26;;;;;;;26.92;6.93;;;10.20;99.90;;;;;;5096088;28;20043;-70
2023/05/28 03:51:52;;;;;;;26.48;7.05;;;10.20;99.90;;;;;;5096033;28;20116;-72
2023/05/28 03:54:18;;;;;;;26.80;7.35;;;10.20;99.90;;;;;;5095510;28;20046;-71
2023/05/28 03:56:44;;;;;;;26.88;7.43;;;10.20;99.90;;;;;;5095706;28;20054;-71
2023/05/28 03:59:10;;;;;;;31.13;7.00;;;10.20;99.90;;;;;;5114292;28;20046;-71
2023/05/28 04:01:36;;;;;;;26.77;8.05;;;10.30;99.90;;;;;;5095718;28;20047;-81
2023/05/28 04:04:03;;;;;;;25.35;7.50;;;10.30;99.90;;;;;;5095657;28;20043;-71
2023/05/28 04:06:28;;;;;;;24.30;6.38;;;10.30;99.90;;;;;;5079177;28;20047;-72
2023/05/28 04:08:55;;;;;;;27.92;6.63;;;10.30;99.90;;;;;;5095122;28;20135;-71
2023/05/28 04:11:24;;;;;;;22.73;6.15;;;10.30;99.90;;;;;;5095712;28;20130;-73
2023/05/28 04:13:50;;;;;;;24.48;8.32;;;10.30;99.90;;;;;;5095452;28;20042;-71
2023/05/28 04:16:16;;;;;;;22.92;7.20;;;10.30;99.90;;;;;;5113606;28;20521;-71
2023/05/28 04:18:42;;;;;;;24.98;6.72;;;10.30;99.90;;;;;;5095861;28;20080;-72
2023/05/28 04:21:08;;;;;;;24.23;6.60;;;10.40;99.90;;;;;;5062374;28;20385;-72
2023/05/28 04:23:33;;;;;;;21.92;6.10;;;10.30;99.90;;;;;;5078789;28;20385;-71
2023/05/28 04:25:59;;;;;;;22.23;6.53;;;10.30;99.90;;;;;;5078274;28;20066;-72
2023/05/28 04:28:27;;;;;;;25.52;7.38;;;10.30;99.90;;;;;;5113299;28;20051;-72
2023/05/28 04:31:00;;;;;;;23.10;5.95;;;10.30;99.90;;;;;;5095896;28;20481;-72
2023/05/28 04:33:28;;;;;;;22.83;6.90;;;10.30;99.90;;;;;;5112983;28;20058;-73
2023/05/28 04:35:55;;;;;;;22.95;7.30;;;10.30;99.90;;;;;;5113305;28;20050;-72
2023/05/28 04:38:21;;;;;;;26.60;6.22;;;10.30;99.90;;;;;;5095287;28;20044;-71
2023/05/28 04:40:49;;;;;;;20.90;6.40;;;10.30;99.90;;;;;;5045271;28;20086;-71
2023/05/28 04:43:15;;;;;;;23.23;6.65;;;10.30;99.90;;;;;;5113096;28;20044;-72
2023/05/28 04:45:43;;;;;;;23.27;6.20;;;10.30;99.90;;;;;;5078258;28;20508;-72
2023/05/28 04:48:08;;;;;;;;;;;10.40;99.90;;;;;;5081758;28;20058;-71
2023/05/28 04:50:34;;;;;;;23.40;6.07;;;10.40;99.90;;;;;;5098948;28;20101;-71
2023/05/28 04:53:00;;;;;;;22.23;6.13;;;10.40;99.90;;;;;;5098584;28;20047;-71
2023/05/28 04:55:26;;;;;;;24.40;6.20;;;10.50;99.90;;;;;;5098836;28;20054;-71
2023/05/28 04:57:52;;;;;;;23.77;5.93;;;10.50;99.90;;;;;;5081760;28;20039;-71
2023/05/28 05:00:18;;;;;;;24.60;5.88;;;10.60;99.90;;;;;;5116449;28;20130;-72
2023/05/28 05:02:45;;;;;;;24.30;6.05;;;10.70;99.90;;;;;;5099114;28;20097;-79
2023/05/28 05:05:11;;;;;;;26.88;7.28;;;10.70;99.90;;;;;;5098534;28;20128;-71
2023/05/28 05:07:37;;;;;;;29.13;7.75;;;10.80;99.90;;;;;;5081104;28;20522;-71
2023/05/28 05:10:10;;;;;;;27.42;6.43;;;10.90;99.90;;;;;;5098927;28;20160;-70
2023/05/28 05:12:36;;;;;;;28.27;6.50;;;11.00;99.90;;;;;;5117285;28;20056;-70
2023/05/28 05:15:04;;;;;;;21.67;6.07;;;11.10;99.90;;;;;;5098421;28;20493;-71
2023/05/28 05:17:30;;;;;;;22.58;6.45;;;11.00;99.90;;;;;;5081104;28;20289;-73
2023/05/28 05:19:56;;;;;;;20.65;5.95;;;11.30;99.90;;;;;;5116433;28;20055;-72
2023/05/28 05:22:22;;;;;;;19.58;5.70;;;11.40;99.90;;;;;;5098306;28;20100;-72
2023/05/28 05:24:48;;;;;;;25.52;6.68;;;11.40;99.90;;;;;;5098047;28;20464;-73
2023/05/28 05:27:14;;;;;;;19.60;6.03;;;11.50;99.90;;;;;;5081322;28;20118;-72
2023/05/28 05:29:40;;;;;;;24.85;6.70;;;11.50;99.90;;;;;;5064978;28;20090;-70
2023/05/28 05:32:06;;;;;;;21.17;5.32;;;11.60;99.90;;;;;;5097509;28;20056;-71
2023/05/28 05:34:32;;;;;;;25.38;5.82;;;11.70;99.90;;;;;;5116477;28;20066;-72
2023/05/28 05:37:01;;;;;;;25.38;6.70;;;11.80;99.90;;;;;;5098411;28;20040;-72
2023/05/28 05:39:28;;;;;;;17.20;5.22;;;11.90;99.90;;;;;;5098481;28;20051;-72
2023/05/28 05:41:54;;;;;;;25.80;5.85;;;12.00;99.90;;;;;;5064648;28;20116;-73
2023/05/28 05:44:19;;;;;;;19.75;5.15;;;12.00;99.90;;;;;;5080758;28;20481;-73
2023/05/28 05:46:45;;;;;;;16.50;5.47;;;12.10;99.90;;;;;;5064528;28;20124;-71
2023/05/28 05:49:11;;;;;;;20.38;5.47;;;12.20;99.90;;;;;;5081929;28;20052;-74
2023/05/28 05:51:37;;;;;;;20.17;6.65;;;12.30;99.90;;;;;;5097907;28;20055;-71
2023/05/28 05:54:06;;;;;;;15.32;5.07;;;12.30;99.90;;;;;;5115591;28;20498;-71
2023/05/28 05:56:32;;;;;;;16.88;5.65;;;12.40;99.90;;;;;;5064338;28;20048;-72
2023/05/28 05:58:58;;;;;;;19.27;5.67;;;12.50;99.90;;;;;;5097416;28;20043;-71
2023/05/28 06:01:24;;;;;;;18.00;5.93;;;12.60;99.90;;;;;;5080104;28;20138;-71
2023/05/28 06:03:50;;;;;;;19.43;5.90;;;12.70;99.90;;;;;;5080574;28;20565;-72
2023/05/28 06:06:16;;;;;;;15.27;5.20;;;12.80;99.90;;;;;;5096985;28;20047;-71
2023/05/28 06:08:42;;;;;;;20.50;5.75;;;12.90;99.90;;;;;;5076760;28;20168;-70
2023/05/28 06:11:09;;;;;;;18.98;5.15;;;13.00;99.90;;;;;;5077153;28;20044;-70
2023/05/28 06:13:36;;;;;;;17.08;5.38;;;13.00;99.90;;;;;;5093981;28;20398;-73
2023/05/28 06:16:06;;;;;;;21.92;5.53;;;13.20;99.90;;;;;;5076901;28;20047;-72
2023/05/28 06:18:35;;;;;;;19.42;6.05;;;;;;;;;;5094012;28;20496;-72
2023/05/28 06:21:03;;;;;;;18.90;5.55;;;13.60;99.90;;;;;;5076911;28;20043;-71
2023/05/28 06:23:32;;;;;;;13.18;4.78;;;13.60;99.90;;;;;;5077046;28;20409;-71
2023/05/28 06:25:57;;;;;;;15.43;5.15;;;13.70;99.90;;;;;;5093297;28;20048;-72
2023/05/28 06:28:23;;;;;;;16.50;5.45;;;13.80;99.90;;;;;;5093260;28;20048;-71
2023/05/28 06:30:49;;;;;;;16.67;5.18;;;13.80;99.90;;;;;;5076522;28;20379;-71
2023/05/28 06:33:15;;;;;;;18.02;4.57;;;14.00;99.90;;;;;;5077336;28;20127;-70
2023/05/28 06:35:40;;;;;;;16.13;4.95;;;14.20;99.90;;;;;;5076340;28;20039;-71
2023/05/28 06:38:06;;;;;;;16.45;5.30;;;14.30;99.90;;;;;;5076059;28;20048;-72
2023/05/28 06:40:32;;;;;;;12.48;3.83;;;14.50;99.90;;;;;;5093178;28;20050;-71
2023/05/28 06:43:00;;;;;;;19.65;5.22;;;14.50;99.90;;;;;;5076895;28;20044;-81
2023/05/28 06:45:27;;;;;;;18.98;5.80;;;14.50;99.90;;;;;;5093159;28;20055;-73
2023/05/28 06:47:53;;;;;;;15.33;4.17;;;14.60;99.90;;;;;;5076401;28;20062;-72
2023/05/28 06:50:18;;;;;;;20.20;4.68;;;14.70;99.90;;;;;;5094146;28;20109;-73
2023/05/28 06:52:44;;;;;;;14.27;4.30;;;14.70;99.90;;;;;;5093073;28;20051;-72
2023/05/28 06:55:10;;;;;;;14.60;4.43;;;14.80;99.90;;;;;;5093592;28;20047;-72
2023/05/28 06:57:36;;;;;;;17.00;3.47;;;14.90;99.90;;;;;;5092787;28;20524;-71
2023/05/28 07:00:14;;;;;;;16.40;3.88;;;15.00;99.90;;;;;;5092793;28;20278;-71
2023/05/28 07:02:39;;;;;;;13.50;4.35;;;15.00;99.90;;;;;;5077782;28;20048;-71
2023/05/28 07:05:05;;;;;;;17.95;4.10;;;15.10;99.90;;;;;;5075953;28;20492;-72
2023/05/28 07:07:32;;;;;;;18.92;4.85;;;15.10;99.90;;;;;;5075403;28;20039;-73
2023/05/28 07:09:58;;;;;;;16.05;4.45;;;15.10;99.90;;;;;;5075329;28;20397;-74
2023/05/28 07:12:24;;;;;;;11.27;3.97;;;15.20;99.90;;;;;;5093767;28;20044;-71
2023/05/28 07:14:49;;;;;;;18.05;4.03;;;15.20;99.90;;;;;;5093787;28;20124;-71
2023/05/28 07:17:15;;;;;;;19.25;4.85;;;15.30;99.90;;;;;;5075668;28;20126;-71
2023/05/28 07:19:41;;;;;;;15.38;4.28;;;15.50;99.90;;;;;;5092514;28;20048;-69
2023/05/28 07:22:07;;;;;;;15.10;3.25;;;15.60;99.90;;;;;;5059134;28;20044;-72
2023/05/28 07:24:33;;;;;;;17.77;3.93;;;15.70;99.90;;;;;;5094196;28;20047;-72
2023/05/28 07:26:58;;;;;;;14.20;3.83;;;15.70;99.90;;;;;;5092629;28;20324;-71
2023/05/28 07:29:26;;;;;;;16.17;3.53;;;15.90;99.90;;;;;;5075008;28;20485;-72
2023/05/28 07:31:52;;;;;;;13.82;3.78;;;16.00;99.90;;;;;;5092159;28;20048;-72
2023/05/28 07:34:18;;;;;;;16.17;4.03;;;16.10;99.90;;;;;;5093456;28;20086;-72
2023/05/28 07:36:53;;;;;;;11.02;3.45;;;16.20;99.90;;;;;;5092076;28;20112;-71
2023/05/28 07:39:18;;;;;;;11.15;3.63;;;16.40;99.90;;;;;;5092442;28;20423;-70
2023/05/28 07:41:44;;;;;;;17.40;3.95;;;16.50;99.90;;;;;;5058752;28;20054;-70
2023/05/28 07:44:10;;;;;;;17.05;4.32;;;16.60;99.90;;;;;;5058653;28;20052;-71
2023/05/28 07:46:37;;;;;;;21.45;4.40;;;16.60;99.90;;;;;;5091772;28;20052;-71
2023/05/28 07:49:03;;;;;;;13.63;4.23;;;16.60;99.90;;;;;;5091913;28;20046;-71
2023/05/28 07:51:29;;;;;;;18.45;4.68;;;16.60;99.90;;;;;;5091036;28;20282;-71
2023/05/28 07:53:54;;;;;;;12.43;3.70;;;16.70;99.90;;;;;;5090985;28;20051;-71
2023/05/28 07:56:23;;;;;;;14.52;3.58;;;16.80;99.90;;;;;;5058689;28;20044;-70
2023/05/28 07:58:49;;;;;;;14.43;3.90;;;16.90;99.90;;;;;;5059660;28;20115;-72
2023/05/28 08:01:15;;;;;;;16.52;4.07;;;17.00;99.90;;;;;;5092672;28;20076;-72
2023/05/28 08:03:41;;;;;;;15.43;4.05;;;17.00;99.90;;;;;;5075951;28;20036;-71
2023/05/28 08:06:08;;;;;;;12.77;3.87;;;17.00;99.90;;;;;;5058919;28;20052;-73
2023/05/28 08:08:34;;;;;;;;;;;17.10;99.90;;;;;;5092141;28;20425;-73
2023/05/28 08:11:00;;;;;;;13.60;3.60;;;17.20;99.90;;;;;;5091993;28;20368;-71
2023/05/28 08:13:26;;;;;;;14.30;3.42;;;17.30;99.90;;;;;;5075191;28;20090;-71
2023/05/28 08:15:52;;;;;;;13.48;4.28;;;17.40;99.90;;;;;;5075111;28;20409;-73
2023/05/28 08:18:18;;;;;;;11.90;3.65;;;17.40;99.90;;;;;;5092805;28;20048;-73
2023/05/28 08:20:43;;;;;;;14.85;4.38;;;17.30;99.90;;;;;;5074965;28;20048;-71
2023/05/28 08:23:11;;;;;;;14.85;4.45;;;17.40;99.90;;;;;;5095959;28;20058;-72
2023/05/28 08:25:37;;;;;;;14.18;4.03;;;17.30;99.90;;;;;;5079993;28;20106;-71
2023/05/28 08:28:04;;;;;;;14.95;3.78;;;17.20;99.90;;;;;;5095405;28;20432;-72
2023/05/28 08:30:30;;;;;;;16.92;4.38;;;17.40;99.90;;;;;;5063128;28;20460;-73
2023/05/28 08:32:56;;;;;;;21.15;4.63;;;17.40;99.90;;;;;;5096957;28;20136;-72
2023/05/28 08:35:22;;;;;;;16.02;4.43;;;17.50;99.90;;;;;;5096603;28;20410;-71
2023/05/28 08:37:49;;;;;;;12.73;3.80;;;17.60;99.90;;;;;;5062044;28;20389;-74
2023/05/28 08:40:15;;;;;;;13.13;4.10;;;17.70;99.90;;;;;;5062626;28;20040;-71
2023/05/28 08:42:41;;;;;;;12.30;3.45;;;17.60;99.90;;;;;;5078621;28;20048;-72
2023/05/28 08:45:07;;;;;;;14.45;4.10;;;17.60;99.90;;;;;;5078710;28;20054;-73
2023/05/28 08:47:33;;;;;;;13.10;3.90;;;17.70;99.90;;;;;;5078380;28;20044;-70
2023/05/28 08:50:03;;;;;;;16.87;3.90;;;17.80;99.90;;;;;;5078898;28;20040;-73
2023/05/28 08:52:32;;;;;;;16.05;4.38;;;18.00;99.90;;;;;;5096260;28;20773;-72
2023/05/28 08:55:01;;;;;;;12.00;3.25;;;17.90;99.90;;;;;;5095257;28;20485;-72
2023/05/28 08:57:30;;;;;;;11.25;3.53;;;18.00;99.90;;;;;;5095039;28;20565;-74
2023/05/28 08:59:58;;;;;;;15.23;4.07;;;17.90;99.90;;;;;;5097045;28;20044;-72
2023/05/28 09:02:25;;;;;;;16.08;4.10;;;18.20;99.90;;;;;;5095148;28;20080;-72
2023/05/28 09:04:51;;;;;;;12.13;4.05;;;18.20;99.90;;;;;;5095642;28;20199;-72
2023/05/28 09:07:17;;;;;;;15.63;4.20;;;18.30;99.90;;;;;;5096407;28;20478;-74
2023/05/28 09:09:44;;;;;;;16.88;4.20;;;18.30;99.90;;;;;;5094943;28;20117;-73
2023/05/28 09:12:11;;;;;;;12.77;4.10;;;18.30;99.90;;;;;;5078332;28;20055;-73
2023/05/28 09:14:39;;;;;;;;;;;18.30;99.90;;;;;;5095175;28;20051;-74
2023/05/28 09:17:05;;;;;;;13.55;4.80;;;18.40;99.90;;;;;;5077525;28;19927;-73
2023/05/28 09:19:31;;;;;;;13.63;3.57;;;18.40;99.90;;;;;;5078082;28;20044;-74
2023/05/28 09:21:57;;;;;;;18.92;4.30;;;18.50;99.90;;;;;;5094931;28;20075;-73
2023/05/28 09:24:26;;;;;;;16.20;4.43;;;18.50;99.90;;;;;;5094610;28;20051;-72
2023/05/28 09:26:57;;;;;;;14.07;4.75;;;18.70;99.90;;;;;;5094423;28;20139;-72
2023/05/28 09:29:24;;;;;;;13.00;4.18;;;18.60;99.90;;;;;;5094583;28;20056;-73
2023/05/28 09:31:58;;;;;;;15.43;4.35;;;18.70;99.90;;;;;;5094046;28;20079;-73
2023/05/28 09:34:29;;;;;;;14.55;4.50;;;18.70;99.90;;;;;;5094330;28;20059;-73
2023/05/28 09:37:04;;;;;;;13.73;4.00;;;18.70;99.90;;;;;;5076763;28;20131;-72
2023/05/28 09:39:31;;;;;;;13.52;4.35;;;18.90;99.90;;;;;;5095415;28;20052;-72
2023/05/28 09:42:06;;;;;;;13.57;4.18;;;18.80;99.40;;;;;;5095070;28;20059;-73
2023/05/28 09:44:33;;;;;;;13.63;4.60;;;18.90;99.80;;;;;;5093730;28;20143;-71
2023/05/28 09:46:59;;;;;;;11.30;4.03;;;18.90;99.90;;;;;;5094020;28;20051;-75
2023/05/28 09:49:28;;;;;;;12.38;3.75;;;19.20;99.90;;;;;;5095755;28;20044;-74
2023/05/28 09:51:57;;;;;;;13.80;4.70;;;19.20;99.30;;;;;;5096144;28;20381;-72
2023/05/28 09:54:28;;;;;;;11.40;4.10;;;19.10;97.70;;;;;;5095039;28;20531;-72
2023/05/28 09:56:57;;;;;;;15.52;4.50;;;19.20;99.70;;;;;;5094948;28;20434;-72
2023/05/28 09:59:26;;;;;;;12.52;4.13;;;19.40;99.60;;;;;;5095326;28;20055;-72
2023/05/28 10:01:59;;;;;;;12.45;3.88;;;19.50;98.60;;;;;;5094135;28;20413;-72
2023/05/28 10:04:34;;;;;;;11.43;3.65;;;19.70;97.90;;;;;;5095350;28;20056;-71
2023/05/28 10:07:03;;;;;;;17.92;4.47;;;19.50;97.60;;;;;;5076801;28;20131;-73
2023/05/28 10:09:31;;;;;;;12.25;4.22;;;19.50;97.30;;;;;;5107140;28;20095;-72
2023/05/28 10:12:07;;;;;;;12.73;4.03;;;19.50;98.00;;;;;;5098210;28;20445;-72
2023/05/28 10:14:33;;;;;;;11.57;3.72;;;19.60;97.60;;;;;;5097767;28;20044;-72
2023/05/28 10:16:59;;;;;;;10.03;3.87;;;19.80;98.60;;;;;;5080171;28;20399;-72
2023/05/28 10:19:26;;;;;;;11.77;3.88;;;19.80;98.00;;;;;;5097258;28;20401;-70
2023/05/28 10:21:53;;;;;;;15.73;4.55;;;19.90;96.80;;;;;;5080257;28;20181;-76
2023/05/28 10:24:20;;;;;;;10.90;4.07;;;20.00;97.10;;;;;;5096716;28;20184;-71
2023/05/28 10:26:45;;;;;;;12.40;4.13;;;20.00;97.40;;;;;;5114807;28;20047;-75
2023/05/28 10:29:11;;;;;;;15.50;4.20;;;19.80;95.80;;;;;;5080050;28;20040;-71
2023/05/28 10:31:37;;;;;;;15.17;4.47;;;19.90;97.40;;;;;;5097408;28;20039;-70
2023/05/28 10:34:17;;;;;;;10.60;3.47;;;20.10;97.10;;;;;;5080117;28;20044;-73
2023/05/28 10:36:55;;;;;;;11.65;4.05;;;20.20;96.10;;;;;;5080768;28;20394;-71
2023/05/28 10:39:21;;;;;;;9.95;3.88;;;20.10;97.00;;;;;;5115635;28;20043;-71
2023/05/28 10:41:48;;;;;;;13.47;3.83;;;20.10;96.00;;;;;;5080011;28;20040;-70
2023/05/28 10:44:14;;;;;;;8.90;3.45;;;20.10;96.70;;;;;;5113954;28;20100;-71
2023/05/28 10:46:41;;;;;;;13.02;4.03;;;20.20;96.50;;;;;;5096690;28;20122;-73
2023/05/28 10:49:14;;;;;;;11.82;3.60;;;20.10;95.40;;;;;;5114933;28;20135;-71
2023/05/28 10:52:00;;;;;;;13.35;4.50;;;20.30;95.70;;;;;;5097367;28;20043;-73
2023/05/28 10:54:29;;;;;;;11.07;3.45;;;20.20;94.50;;;;;;5063121;28;20539;-72
2023/05/28 10:57:14;;;;;;;12.98;3.90;;;20.20;94.90;;;;;;5096517;28;20066;-71
2023/05/28 10:59:47;;;;;;;13.00;3.60;;;20.20;94.20;;;;;;5096764;28;20050;-71
2023/05/28 11:02:18;;;;;;;12.80;3.50;;;20.30;94.20;;;;;;5114415;28;20066;-70
2023/05/28 11:04:45;;;;;;;12.30;3.40;;;20.40;94.80;;;;;;5096411;28;20044;-71
2023/05/28 11:07:13;;;;;;;12.85;3.63;;;20.40;94.00;;;;;;5095991;28;20043;-71
2023/05/28 11:09:39;;;;;;;13.30;4.20;;;20.40;93.90;;;;;;5095961;28;20060;-70
2023/05/28 11:12:06;;;;;;;12.70;4.00;;;20.60;92.80;;;;;;5096155;28;20106;-72
2023/05/28 11:14:36;;;;;;;12.55;4.28;;;20.70;93.60;;;;;;5080345;28;20083;-71
2023/05/28 11:17:05;;;;;;;13.70;3.85;;;20.60;92.70;;;;;;5114292;28;20112;-71
2023/05/28 11:19:37;;;;;;;12.82;3.75;;;20.60;92.00;;;;;;5079136;28;20043;-70
2023/05/28 11:22:03;;;;;;;15.63;3.60;;;20.70;92.10;;;;;;5097106;28;20043;-72
2023/05/28 11:24:29;;;;;;;8.83;3.30;;;20.90;92.80;;;;;;5095895;28;20046;-68
2023/05/28 11:26:55;;;;;;;13.23;4.27;;;20.80;91.20;;;;;;5114254;28;20103;-71
2023/05/28 11:29:22;;;;;;;12.40;4.00;;;20.80;90.20;;;;;;5113996;28;20079;-70
2023/05/28 11:31:47;;;;;;;11.07;3.42;;;20.90;91.00;;;;;;5096274;28;20491;-71
2023/05/28 11:34:13;;;;;;;9.73;3.57;;;21.10;91.70;;;;;;5079389;28;20130;-71
2023/05/28 11:36:43;;;;;;;10.47;3.30;;;21.10;90.20;;;;;;5078788;28;20039;-72
2023/05/28 11:39:09;;;;;;;12.35;3.70;;;21.10;90.20;;;;;;5113921;28;20040;-71
2023/05/28 11:41:35;;;;;;;11.48;3.10;;;20.90;90.00;;;;;;5096676;28;20039;-72
2023/05/28 11:44:01;;;;;;;9.15;3.47;;;21.10;88.30;;;;;;5062469;28;20047;-73
2023/05/28 11:46:27;;;;;;;10.63;3.40;;;21.00;87.60;;;;;;5062322;28;20089;-69
2023/05/28 11:48:53;;;;;;;8.43;3.20;;;20.80;87.30;;;;;;5096160;28;20055;-71
2023/05/28 11:51:20;;;;;;;9.40;3.00;;;20.90;86.30;;;;;;5113561;28;20054;-72
2023/05/28 11:53:46;;;;;;;;;;;21.00;86.90;;;;;;5095751;28;20086;-71
2023/05/28 11:56:12;;;;;;;10.43;3.42;;;21.00;83.90;;;;;;5098019;28;20400;-72
2023/05/28 11:58:44;;;;;;;10.32;3.33;;;20.90;82.80;;;;;;5100146;28;20538;-73
2023/05/28 12:01:19;;;;;;;6.18;2.55;;;21.10;84.90;;;;;;5067546;28;20117;-71
2023/05/28 12:03:45;;;;;;;8.60;3.08;;;21.10;81.10;;;;;;5099256;28;20044;-71
2023/05/28 12:06:11;;;;;;;9.05;2.83;;;21.10;81.00;;;;;;5066597;28;20473;-71
2023/05/28 12:08:40;;;;;;;9.00;2.53;;;21.10;81.70;;;;;;5099496;28;20059;-72
2023/05/28 12:11:08;;;;;;;9.07;3.15;;;21.20;83.30;;;;;;5099788;28;20051;-69
2023/05/28 12:13:35;;;;;;;10.80;3.30;;;21.10;80.50;;;;;;5117907;28;20101;-71
2023/05/28 12:16:11;;;;;;;7.35;2.67;;;21.10;82.20;;;;;;5117712;28;20047;-70
2023/05/28 12:18:42;;;;;;;9.00;2.97;;;21.30;82.30;;;;;;5082865;28;20164;-72
2023/05/28 12:21:21;;;;;;;8.35;2.90;;;21.30;80.80;;;;;;5099053;28;20039;-75
2023/05/28 12:23:47;;;;;;;9.85;2.90;;;21.40;81.20;;;;;;5067836;28;20384;-72
2023/05/28 12:26:14;;;;;;;8.25;2.78;;;21.40;78.40;;;;;;5099832;28;20054;-71
2023/05/28 12:28:41;;;;;;;9.23;3.28;;;21.10;76.90;;;;;;5099685;28;20039;-70
2023/05/28 12:31:08;;;;;;;7.75;2.72;;;21.20;77.70;;;;;;5099519;28;20047;-72
2023/05/28 12:33:34;;;;;;;8.57;3.03;;;21.40;77.90;;;;;;5117296;28;20044;-71
2023/05/28 12:36:00;;;;;;;8.80;2.70;;;21.40;76.30;;;;;;5082382;28;20131;-73
2023/05/28 12:38:26;;;;;;;7.10;2.83;;;21.30;73.00;;;;;;5099120;28;20138;-72
2023/05/28 12:40:53;;;;;;;9.65;3.42;;;21.40;72.30;;;;;;5117369;28;20067;-73